sensor_id;sensor_type;location;lat;lon;timestamp;P1;durP1;ratioP1;P2;durP2;ratioP2
10315;SDS011;5203;48.976;8.306;2023-06-26T00:01:18;12.98;;;11.98;;
10315;SDS011;5203;48.976;8.306;2023-06-26T00:03:49;12.75;;;11.88;;
10315;SDS011;5203;48.976;8.306;2023-06-26T00:06:14;12.40;;;11.45;;
10315;SDS011;5203;48.976;8.306;2023-06-26T00:08:40;12.98;;;12.07;;
10315;SDS011;5203;48.976;8.306;2023-06-26T00:11:05;12.80;;;11.80;;
10315;SDS011;5203;48.976;8.306;2023-06-26T00:13:31;12.35;;;11.55;;
10315;SDS011;5203;48.976;8.306;2023-06-26T00:15:57;13.30;;;12.30;;
10315;SDS011;5203;48.976;8.306;2023-06-26T00:18:22;12.77;;;11.98;;
10315;SDS011;5203;48.976;8.306;2023-06-26T00:20:49;12.88;;;11.98;;
10315;SDS011;5203;48.976;8.306;2023-06-26T00:23:16;12.65;;;11.85;;
10315;SDS011;5203;48.976;8.306;2023-06-26T00:25:42;12.43;;;11.32;;
10315;SDS011;5203;48.976;8.306;2023-06-26T00:28:08;12.13;;;11.27;;
10315;SDS011;5203;48.976;8.306;2023-06-26T00:30:34;12.70;;;11.80;;
10315;SDS011;5203;48.976;8.306;2023-06-26T00:33:00;12.13;;;11.23;;
10315;SDS011;5203;48.976;8.306;2023-06-26T00:35:25;12.65;;;11.80;;
10315;SDS011;5203;48.976;8.306;2023-06-26T00:37:51;13.15;;;12.25;;
10315;SDS011;5203;48.976;8.306;2023-06-26T00:40:17;12.25;;;11.35;;
10315;SDS011;5203;48.976;8.306;2023-06-26T00:42:43;12.75;;;11.75;;
10315;SDS011;5203;48.976;8.306;2023-06-26T00:45:09;12.05;;;11.18;;
10315;SDS011;5203;48.976;8.306;2023-06-26T00:47:34;12.85;;;11.98;;
10315;SDS011;5203;48.976;8.306;2023-06-26T00:50:00;12.70;;;11.80;;
10315;SDS011;5203;48.976;8.306;2023-06-26T00:52:26;13.25;;;12.10;;
10315;SDS011;5203;48.976;8.306;2023-06-26T00:54:52;12.02;;;11.23;;
10315;SDS011;5203;48.976;8.306;2023-06-26T00:57:18;12.20;;;11.35;;
10315;SDS011;5203;48.976;8.306;2023-06-26T00:59:44;12.63;;;11.70;;
10315;SDS011;5203;48.976;8.306;2023-06-26T01:02:09;13.25;;;11.85;;
10315;SDS011;5203;48.976;8.306;2023-06-26T01:04:35;12.13;;;11.32;;
10315;SDS011;5203;48.976;8.306;2023-06-26T01:07:01;12.43;;;11.52;;
10315;SDS011;5203;48.976;8.306;2023-06-26T01:09:27;12.48;;;11.32;;
10315;SDS011;5203;48.976;8.306;2023-06-26T01:11:54;12.40;;;11.60;;
10315;SDS011;5203;48.976;8.306;2023-06-26T01:14:20;12.18;;;11.27;;
10315;SDS011;5203;48.976;8.306;2023-06-26T01:16:45;12.25;;;11.45;;
10315;SDS011;5203;48.976;8.306;2023-06-26T01:19:23;12.75;;;11.88;;
10315;SDS011;5203;48.976;8.306;2023-06-26T01:21:51;12.35;;;11.45;;
10315;SDS011;5203;48.976;8.306;2023-06-26T01:24:23;12.07;;;11.23;;
10315;SDS011;5203;48.976;8.306;2023-06-26T01:26:54;13.05;;;12.02;;
10315;SDS011;5203;48.976;8.306;2023-06-26T01:29:20;12.45;;;11.55;;
10315;SDS011;5203;48.976;8.306;2023-06-26T01:31:48;12.32;;;11.43;;
10315;SDS011;5203;48.976;8.306;2023-06-26T01:34:17;12.52;;;11.63;;
10315;SDS011;5203;48.976;8.306;2023-06-26T01:36:44;11.82;;;11.02;;
10315;SDS011;5203;48.976;8.306;2023-06-26T01:39:12;12.27;;;11.48;;
10315;SDS011;5203;48.976;8.306;2023-06-26T01:41:40;13.15;;;12.25;;
10315;SDS011;5203;48.976;8.306;2023-06-26T01:52:28;12.60;;;11.63;;
10315;SDS011;5203;48.976;8.306;2023-06-26T01:57:52;11.95;;;10.93;;
10315;SDS011;5203;48.976;8.306;2023-06-26T02:00:21;12.25;;;11.35;;
10315;SDS011;5203;48.976;8.306;2023-06-26T02:02:49;12.10;;;11.20;;
10315;SDS011;5203;48.976;8.306;2023-06-26T02:05:14;12.82;;;11.93;;
10315;SDS011;5203;48.976;8.306;2023-06-26T02:07:40;11.38;;;10.50;;
10315;SDS011;5203;48.976;8.306;2023-06-26T02:10:07;11.95;;;11.02;;
10315;SDS011;5203;48.976;8.306;2023-06-26T02:12:33;12.32;;;11.43;;
10315;SDS011;5203;48.976;8.306;2023-06-26T02:15:00;12.63;;;11.65;;
10315;SDS011;5203;48.976;8.306;2023-06-26T02:17:27;12.00;;;11.18;;
10315;SDS011;5203;48.976;8.306;2023-06-26T02:19:52;13.32;;;12.35;;
10315;SDS011;5203;48.976;8.306;2023-06-26T02:22:18;12.27;;;11.38;;
10315;SDS011;5203;48.976;8.306;2023-06-26T02:24:43;13.10;;;11.77;;
10315;SDS011;5203;48.976;8.306;2023-06-26T02:27:09;13.10;;;12.07;;
10315;SDS011;5203;48.976;8.306;2023-06-26T02:29:35;11.75;;;10.85;;
10315;SDS011;5203;48.976;8.306;2023-06-26T02:32:01;11.80;;;10.95;;
10315;SDS011;5203;48.976;8.306;2023-06-26T02:34:26;12.18;;;11.30;;
10315;SDS011;5203;48.976;8.306;2023-06-26T02:36:52;12.15;;;11.15;;
10315;SDS011;5203;48.976;8.306;2023-06-26T02:39:21;12.48;;;11.48;;
10315;SDS011;5203;48.976;8.306;2023-06-26T02:41:47;12.95;;;12.05;;
10315;SDS011;5203;48.976;8.306;2023-06-26T02:44:12;11.80;;;10.95;;
10315;SDS011;5203;48.976;8.306;2023-06-26T02:46:39;12.20;;;11.20;;
10315;SDS011;5203;48.976;8.306;2023-06-26T02:49:05;13.38;;;12.05;;
10315;SDS011;5203;48.976;8.306;2023-06-26T02:51:34;12.40;;;11.50;;
10315;SDS011;5203;48.976;8.306;2023-06-26T02:54:00;12.68;;;11.73;;
10315;SDS011;5203;48.976;8.306;2023-06-26T02:56:26;11.90;;;11.00;;
10315;SDS011;5203;48.976;8.306;2023-06-26T02:58:55;12.27;;;11.18;;
10315;SDS011;5203;48.976;8.306;2023-06-26T03:01:21;12.57;;;11.27;;
10315;SDS011;5203;48.976;8.306;2023-06-26T03:03:46;13.38;;;12.07;;
10315;SDS011;5203;48.976;8.306;2023-06-26T03:06:12;12.65;;;11.27;;
10315;SDS011;5203;48.976;8.306;2023-06-26T03:08:39;13.88;;;12.43;;
10315;SDS011;5203;48.976;8.306;2023-06-26T03:11:06;12.52;;;11.43;;
10315;SDS011;5203;48.976;8.306;2023-06-26T03:13:32;18.75;;;11.95;;
10315;SDS011;5203;48.976;8.306;2023-06-26T03:15:59;12.43;;;11.52;;
10315;SDS011;5203;48.976;8.306;2023-06-26T03:18:25;12.35;;;11.30;;
10315;SDS011;5203;48.976;8.306;2023-06-26T03:20:51;11.88;;;11.02;;
10315;SDS011;5203;48.976;8.306;2023-06-26T03:23:19;12.80;;;11.57;;
10315;SDS011;5203;48.976;8.306;2023-06-26T03:25:45;13.30;;;12.13;;
10315;SDS011;5203;48.976;8.306;2023-06-26T03:28:11;13.25;;;11.48;;
10315;SDS011;5203;48.976;8.306;2023-06-26T03:30:38;12.55;;;11.55;;
10315;SDS011;5203;48.976;8.306;2023-06-26T03:33:04;13.52;;;12.32;;
10315;SDS011;5203;48.976;8.306;2023-06-26T03:35:29;12.32;;;11.10;;
10315;SDS011;5203;48.976;8.306;2023-06-26T03:37:55;13.63;;;12.45;;
10315;SDS011;5203;48.976;8.306;2023-06-26T03:40:21;12.90;;;11.68;;
10315;SDS011;5203;48.976;8.306;2023-06-26T03:42:47;13.10;;;11.85;;
10315;SDS011;5203;48.976;8.306;2023-06-26T03:45:13;13.40;;;12.25;;
10315;SDS011;5203;48.976;8.306;2023-06-26T03:47:38;13.18;;;11.93;;
10315;SDS011;5203;48.976;8.306;2023-06-26T03:50:04;12.70;;;11.50;;
10315;SDS011;5203;48.976;8.306;2023-06-26T03:52:30;12.43;;;11.48;;
10315;SDS011;5203;48.976;8.306;2023-06-26T03:54:56;12.68;;;11.52;;
10315;SDS011;5203;48.976;8.306;2023-06-26T03:57:22;13.07;;;11.98;;
10315;SDS011;5203;48.976;8.306;2023-06-26T03:59:48;13.23;;;11.93;;
10315;SDS011;5203;48.976;8.306;2023-06-26T04:02:15;13.90;;;12.88;;
10315;SDS011;5203;48.976;8.306;2023-06-26T04:04:40;12.85;;;11.75;;
10315;SDS011;5203;48.976;8.306;2023-06-26T04:07:06;13.70;;;12.50;;
10315;SDS011;5203;48.976;8.306;2023-06-26T04:09:32;13.70;;;12.40;;
10315;SDS011;5203;48.976;8.306;2023-06-26T04:11:57;13.15;;;12.20;;
10315;SDS011;5203;48.976;8.306;2023-06-26T04:14:23;14.40;;;13.00;;
10315;SDS011;5203;48.976;8.306;2023-06-26T04:16:48;13.80;;;12.63;;
10315;SDS011;5203;48.976;8.306;2023-06-26T04:19:14;13.60;;;12.57;;
10315;SDS011;5203;48.976;8.306;2023-06-26T04:21:40;13.70;;;12.65;;
10315;SDS011;5203;48.976;8.306;2023-06-26T04:24:06;13.80;;;12.50;;
10315;SDS011;5203;48.976;8.306;2023-06-26T04:26:31;13.48;;;12.13;;
10315;SDS011;5203;48.976;8.306;2023-06-26T04:28:57;13.63;;;12.40;;
10315;SDS011;5203;48.976;8.306;2023-06-26T04:31:24;17.67;;;13.00;;
10315;SDS011;5203;48.976;8.306;2023-06-26T04:33:50;13.50;;;12.30;;
10315;SDS011;5203;48.976;8.306;2023-06-26T04:36:16;13.30;;;12.23;;
10315;SDS011;5203;48.976;8.306;2023-06-26T04:38:42;13.25;;;12.15;;
10315;SDS011;5203;48.976;8.306;2023-06-26T04:41:08;13.20;;;12.20;;
10315;SDS011;5203;48.976;8.306;2023-06-26T04:43:34;13.68;;;12.48;;
10315;SDS011;5203;48.976;8.306;2023-06-26T04:45:59;14.23;;;13.18;;
10315;SDS011;5203;48.976;8.306;2023-06-26T04:48:25;12.88;;;11.93;;
10315;SDS011;5203;48.976;8.306;2023-06-26T04:50:54;12.98;;;11.98;;
10315;SDS011;5203;48.976;8.306;2023-06-26T04:53:21;13.85;;;12.80;;
10315;SDS011;5203;48.976;8.306;2023-06-26T04:55:48;13.07;;;11.93;;
10315;SDS011;5203;48.976;8.306;2023-06-26T04:58:14;13.93;;;12.70;;
10315;SDS011;5203;48.976;8.306;2023-06-26T05:00:41;13.70;;;12.50;;
10315;SDS011;5203;48.976;8.306;2023-06-26T05:03:12;14.15;;;12.93;;
10315;SDS011;5203;48.976;8.306;2023-06-26T05:05:39;13.63;;;12.63;;
10315;SDS011;5203;48.976;8.306;2023-06-26T05:08:23;14.38;;;12.82;;
10315;SDS011;5203;48.976;8.306;2023-06-26T05:10:51;14.07;;;12.70;;
10315;SDS011;5203;48.976;8.306;2023-06-26T05:13:18;13.68;;;12.68;;
10315;SDS011;5203;48.976;8.306;2023-06-26T05:15:45;14.43;;;13.23;;
10315;SDS011;5203;48.976;8.306;2023-06-26T05:18:11;14.70;;;13.13;;
10315;SDS011;5203;48.976;8.306;2023-06-26T05:20:37;14.07;;;13.00;;
10315;SDS011;5203;48.976;8.306;2023-06-26T05:23:04;15.35;;;14.10;;
10315;SDS011;5203;48.976;8.306;2023-06-26T05:25:30;15.13;;;13.88;;
10315;SDS011;5203;48.976;8.306;2023-06-26T05:27:59;14.60;;;13.50;;
10315;SDS011;5203;48.976;8.306;2023-06-26T05:30:26;14.80;;;13.63;;
10315;SDS011;5203;48.976;8.306;2023-06-26T05:32:53;15.50;;;14.43;;
10315;SDS011;5203;48.976;8.306;2023-06-26T05:35:22;15.95;;;14.65;;
10315;SDS011;5203;48.976;8.306;2023-06-26T05:37:49;14.68;;;13.60;;
10315;SDS011;5203;48.976;8.306;2023-06-26T05:40:16;15.30;;;14.20;;
10315;SDS011;5203;48.976;8.306;2023-06-26T05:42:43;15.95;;;14.68;;
10315;SDS011;5203;48.976;8.306;2023-06-26T05:45:09;16.02;;;14.45;;
10315;SDS011;5203;48.976;8.306;2023-06-26T05:47:35;15.30;;;14.02;;
10315;SDS011;5203;48.976;8.306;2023-06-26T05:50:02;15.40;;;14.00;;
10315;SDS011;5203;48.976;8.306;2023-06-26T05:52:28;15.38;;;14.15;;
10315;SDS011;5203;48.976;8.306;2023-06-26T05:54:55;15.20;;;14.02;;
10315;SDS011;5203;48.976;8.306;2023-06-26T05:57:23;16.23;;;14.93;;
10315;SDS011;5203;48.976;8.306;2023-06-26T05:59:49;15.00;;;13.70;;
10315;SDS011;5203;48.976;8.306;2023-06-26T06:02:16;16.70;;;15.27;;
10315;SDS011;5203;48.976;8.306;2023-06-26T06:04:41;15.18;;;13.98;;
10315;SDS011;5203;48.976;8.306;2023-06-26T06:07:07;13.93;;;12.90;;
10315;SDS011;5203;48.976;8.306;2023-06-26T06:09:33;16.02;;;14.85;;
10315;SDS011;5203;48.976;8.306;2023-06-26T06:11:58;15.55;;;14.32;;
10315;SDS011;5203;48.976;8.306;2023-06-26T06:14:24;14.23;;;13.07;;
10315;SDS011;5203;48.976;8.306;2023-06-26T06:16:50;14.90;;;13.65;;
10315;SDS011;5203;48.976;8.306;2023-06-26T06:19:16;14.43;;;13.23;;
10315;SDS011;5203;48.976;8.306;2023-06-26T06:21:41;14.40;;;12.93;;
10315;SDS011;5203;48.976;8.306;2023-06-26T06:24:08;14.13;;;12.93;;
10315;SDS011;5203;48.976;8.306;2023-06-26T06:26:34;13.32;;;12.32;;
10315;SDS011;5203;48.976;8.306;2023-06-26T06:29:00;13.82;;;12.73;;
10315;SDS011;5203;48.976;8.306;2023-06-26T06:31:26;13.45;;;12.38;;
10315;SDS011;5203;48.976;8.306;2023-06-26T06:33:53;13.10;;;12.20;;
10315;SDS011;5203;48.976;8.306;2023-06-26T06:36:19;12.80;;;11.90;;
10315;SDS011;5203;48.976;8.306;2023-06-26T06:38:48;13.55;;;12.40;;
10315;SDS011;5203;48.976;8.306;2023-06-26T06:41:14;13.95;;;12.65;;
10315;SDS011;5203;48.976;8.306;2023-06-26T06:43:40;13.25;;;12.23;;
10315;SDS011;5203;48.976;8.306;2023-06-26T06:46:06;12.98;;;11.98;;
10315;SDS011;5203;48.976;8.306;2023-06-26T06:48:32;13.50;;;12.43;;
10315;SDS011;5203;48.976;8.306;2023-06-26T06:50:57;12.25;;;11.45;;
10315;SDS011;5203;48.976;8.306;2023-06-26T06:53:23;14.27;;;13.25;;
10315;SDS011;5203;48.976;8.306;2023-06-26T06:55:49;13.43;;;12.25;;
10315;SDS011;5203;48.976;8.306;2023-06-26T06:58:15;13.35;;;12.18;;
10315;SDS011;5203;48.976;8.306;2023-06-26T07:00:47;12.07;;;11.27;;
10315;SDS011;5203;48.976;8.306;2023-06-26T07:03:13;12.07;;;11.27;;
10315;SDS011;5203;48.976;8.306;2023-06-26T07:05:42;13.02;;;12.13;;
10315;SDS011;5203;48.976;8.306;2023-06-26T07:08:08;12.82;;;11.75;;
10315;SDS011;5203;48.976;8.306;2023-06-26T07:10:34;13.25;;;12.15;;
10315;SDS011;5203;48.976;8.306;2023-06-26T07:12:59;13.25;;;12.05;;
10315;SDS011;5203;48.976;8.306;2023-06-26T07:15:25;13.15;;;11.93;;
10315;SDS011;5203;48.976;8.306;2023-06-26T07:17:51;13.88;;;12.88;;
10315;SDS011;5203;48.976;8.306;2023-06-26T07:20:17;12.68;;;11.77;;
10315;SDS011;5203;48.976;8.306;2023-06-26T07:22:43;12.45;;;11.55;;
10315;SDS011;5203;48.976;8.306;2023-06-26T07:25:10;12.05;;;11.02;;
10315;SDS011;5203;48.976;8.306;2023-06-26T07:27:36;12.93;;;11.93;;
10315;SDS011;5203;48.976;8.306;2023-06-26T07:30:02;12.20;;;11.40;;
10315;SDS011;5203;48.976;8.306;2023-06-26T07:32:28;13.45;;;12.23;;
10315;SDS011;5203;48.976;8.306;2023-06-26T07:34:54;12.82;;;11.73;;
10315;SDS011;5203;48.976;8.306;2023-06-26T07:37:19;12.15;;;11.20;;
10315;SDS011;5203;48.976;8.306;2023-06-26T07:39:45;13.45;;;12.32;;
10315;SDS011;5203;48.976;8.306;2023-06-26T07:42:11;13.77;;;12.88;;
10315;SDS011;5203;48.976;8.306;2023-06-26T07:44:36;13.82;;;12.82;;
10315;SDS011;5203;48.976;8.306;2023-06-26T07:47:02;14.07;;;13.20;;
10315;SDS011;5203;48.976;8.306;2023-06-26T07:49:28;14.77;;;13.77;;
10315;SDS011;5203;48.976;8.306;2023-06-26T07:51:54;15.77;;;14.43;;
10315;SDS011;5203;48.976;8.306;2023-06-26T07:54:22;14.57;;;13.70;;
10315;SDS011;5203;48.976;8.306;2023-06-26T07:59:24;13.73;;;12.35;;
10315;SDS011;5203;48.976;8.306;2023-06-26T08:01:51;13.55;;;12.68;;
10315;SDS011;5203;48.976;8.306;2023-06-26T08:04:18;13.95;;;13.05;;
10315;SDS011;5203;48.976;8.306;2023-06-26T08:06:48;14.20;;;13.20;;
10315;SDS011;5203;48.976;8.306;2023-06-26T08:09:14;13.80;;;12.90;;
10315;SDS011;5203;48.976;8.306;2023-06-26T08:11:40;13.23;;;12.23;;
10315;SDS011;5203;48.976;8.306;2023-06-26T08:14:06;13.15;;;11.93;;
10315;SDS011;5203;48.976;8.306;2023-06-26T08:16:32;12.70;;;11.77;;
10315;SDS011;5203;48.976;8.306;2023-06-26T08:18:57;12.70;;;11.55;;
10315;SDS011;5203;48.976;8.306;2023-06-26T08:21:23;13.02;;;12.13;;
10315;SDS011;5203;48.976;8.306;2023-06-26T08:23:48;13.20;;;12.30;;
10315;SDS011;5203;48.976;8.306;2023-06-26T08:26:14;13.20;;;12.30;;
10315;SDS011;5203;48.976;8.306;2023-06-26T08:28:40;13.30;;;12.40;;
10315;SDS011;5203;48.976;8.306;2023-06-26T08:31:05;12.30;;;11.45;;
10315;SDS011;5203;48.976;8.306;2023-06-26T08:33:31;13.43;;;12.50;;
10315;SDS011;5203;48.976;8.306;2023-06-26T08:35:56;12.77;;;11.98;;
10315;SDS011;5203;48.976;8.306;2023-06-26T08:38:22;12.73;;;11.75;;
10315;SDS011;5203;48.976;8.306;2023-06-26T08:40:48;12.30;;;11.40;;
10315;SDS011;5203;48.976;8.306;2023-06-26T08:43:14;12.68;;;11.43;;
10315;SDS011;5203;48.976;8.306;2023-06-26T08:45:39;13.15;;;12.05;;
10315;SDS011;5203;48.976;8.306;2023-06-26T08:48:08;12.35;;;11.50;;
10315;SDS011;5203;48.976;8.306;2023-06-26T08:50:35;12.57;;;11.57;;
10315;SDS011;5203;48.976;8.306;2023-06-26T08:55:43;13.35;;;12.25;;
10315;SDS011;5203;48.976;8.306;2023-06-26T08:58:10;12.65;;;11.60;;
10315;SDS011;5203;48.976;8.306;2023-06-26T09:00:37;13.20;;;12.02;;
10315;SDS011;5203;48.976;8.306;2023-06-26T09:03:03;12.55;;;11.73;;
10315;SDS011;5203;48.976;8.306;2023-06-26T09:05:29;12.88;;;11.80;;
10315;SDS011;5203;48.976;8.306;2023-06-26T09:07:57;12.15;;;11.35;;
10315;SDS011;5203;48.976;8.306;2023-06-26T09:10:23;13.20;;;12.30;;
10315;SDS011;5203;48.976;8.306;2023-06-26T09:12:49;13.27;;;12.27;;
10315;SDS011;5203;48.976;8.306;2023-06-26T09:15:15;13.43;;;12.63;;
10315;SDS011;5203;48.976;8.306;2023-06-26T09:17:44;12.45;;;11.65;;
10315;SDS011;5203;48.976;8.306;2023-06-26T09:20:09;12.93;;;11.95;;
10315;SDS011;5203;48.976;8.306;2023-06-26T09:22:40;13.25;;;12.25;;
10315;SDS011;5203;48.976;8.306;2023-06-26T09:25:07;13.07;;;12.13;;
10315;SDS011;5203;48.976;8.306;2023-06-26T09:27:34;13.13;;;12.02;;
10315;SDS011;5203;48.976;8.306;2023-06-26T09:30:03;12.73;;;11.93;;
10315;SDS011;5203;48.976;8.306;2023-06-26T09:32:33;12.95;;;12.05;;
10315;SDS011;5203;48.976;8.306;2023-06-26T09:35:02;12.93;;;12.13;;
10315;SDS011;5203;48.976;8.306;2023-06-26T09:37:29;14.05;;;13.07;;
10315;SDS011;5203;48.976;8.306;2023-06-26T09:39:54;13.43;;;12.27;;
10315;SDS011;5203;48.976;8.306;2023-06-26T09:42:20;12.48;;;11.77;;
10315;SDS011;5203;48.976;8.306;2023-06-26T09:44:46;13.07;;;12.05;;
10315;SDS011;5203;48.976;8.306;2023-06-26T09:47:15;13.45;;;12.48;;
10315;SDS011;5203;48.976;8.306;2023-06-26T09:49:41;13.90;;;12.85;;
10315;SDS011;5203;48.976;8.306;2023-06-26T09:52:08;13.93;;;12.75;;
10315;SDS011;5203;48.976;8.306;2023-06-26T09:54:35;13.88;;;12.93;;
10315;SDS011;5203;48.976;8.306;2023-06-26T09:57:11;13.52;;;12.52;;
10315;SDS011;5203;48.976;8.306;2023-06-26T09:59:39;14.18;;;12.77;;
10315;SDS011;5203;48.976;8.306;2023-06-26T10:02:05;14.18;;;13.07;;
10315;SDS011;5203;48.976;8.306;2023-06-26T10:04:31;13.52;;;12.63;;
10315;SDS011;5203;48.976;8.306;2023-06-26T10:07:01;13.52;;;12.73;;
10315;SDS011;5203;48.976;8.306;2023-06-26T10:09:29;15.88;;;14.52;;
10315;SDS011;5203;48.976;8.306;2023-06-26T10:11:57;13.52;;;12.73;;
10315;SDS011;5203;48.976;8.306;2023-06-26T10:14:27;15.52;;;14.63;;
10315;SDS011;5203;48.976;8.306;2023-06-26T10:17:01;20.15;;;18.90;;
10315;SDS011;5203;48.976;8.306;2023-06-26T10:19:31;19.08;;;17.92;;
10315;SDS011;5203;48.976;8.306;2023-06-26T10:21:58;16.27;;;15.23;;
10315;SDS011;5203;48.976;8.306;2023-06-26T10:24:25;16.33;;;15.32;;
10315;SDS011;5203;48.976;8.306;2023-06-26T10:26:56;21.58;;;20.27;;
10315;SDS011;5203;48.976;8.306;2023-06-26T10:29:27;18.58;;;17.58;;
10315;SDS011;5203;48.976;8.306;2023-06-26T10:31:54;20.13;;;18.92;;
10315;SDS011;5203;48.976;8.306;2023-06-26T10:34:22;18.65;;;17.55;;
10315;SDS011;5203;48.976;8.306;2023-06-26T10:36:55;20.80;;;19.63;;
10315;SDS011;5203;48.976;8.306;2023-06-26T10:39:32;19.00;;;18.00;;
10315;SDS011;5203;48.976;8.306;2023-06-26T10:42:10;22.25;;;21.20;;
10315;SDS011;5203;48.976;8.306;2023-06-26T10:44:43;20.17;;;19.08;;
10315;SDS011;5203;48.976;8.306;2023-06-26T10:47:10;18.00;;;16.98;;
10315;SDS011;5203;48.976;8.306;2023-06-26T10:52:44;19.77;;;18.77;;
10315;SDS011;5203;48.976;8.306;2023-06-26T10:55:10;24.92;;;23.73;;
10315;SDS011;5203;48.976;8.306;2023-06-26T10:57:36;23.27;;;22.08;;
10315;SDS011;5203;48.976;8.306;2023-06-26T11:00:10;21.10;;;20.05;;
10315;SDS011;5203;48.976;8.306;2023-06-26T11:02:49;18.45;;;17.40;;
10315;SDS011;5203;48.976;8.306;2023-06-26T11:05:28;17.77;;;16.65;;
10315;SDS011;5203;48.976;8.306;2023-06-26T11:13:27;24.60;;;23.05;;
10315;SDS011;5203;48.976;8.306;2023-06-26T11:15:54;21.85;;;20.70;;
10315;SDS011;5203;48.976;8.306;2023-06-26T11:18:21;22.70;;;21.60;;
10315;SDS011;5203;48.976;8.306;2023-06-26T11:20:49;20.05;;;18.98;;
10315;SDS011;5203;48.976;8.306;2023-06-26T11:23:14;20.27;;;19.17;;
10315;SDS011;5203;48.976;8.306;2023-06-26T11:25:47;18.92;;;17.92;;
10315;SDS011;5203;48.976;8.306;2023-06-26T11:28:13;20.92;;;19.80;;
10315;SDS011;5203;48.976;8.306;2023-06-26T11:30:38;18.48;;;17.48;;
10315;SDS011;5203;48.976;8.306;2023-06-26T11:33:09;18.58;;;17.65;;
10315;SDS011;5203;48.976;8.306;2023-06-26T11:35:35;19.08;;;17.95;;
10315;SDS011;5203;48.976;8.306;2023-06-26T11:38:03;18.40;;;17.35;;
10315;SDS011;5203;48.976;8.306;2023-06-26T11:40:35;18.55;;;17.30;;
10315;SDS011;5203;48.976;8.306;2023-06-26T11:43:01;18.48;;;17.55;;
10315;SDS011;5203;48.976;8.306;2023-06-26T11:45:31;20.75;;;19.38;;
10315;SDS011;5203;48.976;8.306;2023-06-26T11:47:58;21.17;;;19.88;;
10315;SDS011;5203;48.976;8.306;2023-06-26T11:50:24;20.73;;;19.63;;
10315;SDS011;5203;48.976;8.306;2023-06-26T11:52:58;20.60;;;19.55;;
10315;SDS011;5203;48.976;8.306;2023-06-26T11:55:24;20.08;;;18.88;;
10315;SDS011;5203;48.976;8.306;2023-06-26T11:57:54;20.67;;;19.58;;
10315;SDS011;5203;48.976;8.306;2023-06-26T12:00:21;21.63;;;20.42;;
10315;SDS011;5203;48.976;8.306;2023-06-26T12:02:47;21.02;;;20.02;;
10315;SDS011;5203;48.976;8.306;2023-06-26T12:05:14;20.65;;;19.55;;
10315;SDS011;5203;48.976;8.306;2023-06-26T12:07:45;20.40;;;19.30;;
10315;SDS011;5203;48.976;8.306;2023-06-26T12:10:13;19.88;;;18.85;;
10315;SDS011;5203;48.976;8.306;2023-06-26T12:12:40;19.92;;;18.92;;
10315;SDS011;5203;48.976;8.306;2023-06-26T12:15:10;19.23;;;18.30;;
10315;SDS011;5203;48.976;8.306;2023-06-26T12:17:39;19.23;;;18.27;;
10315;SDS011;5203;48.976;8.306;2023-06-26T12:20:05;19.13;;;18.10;;
10315;SDS011;5203;48.976;8.306;2023-06-26T12:22:35;18.83;;;18.02;;
10315;SDS011;5203;48.976;8.306;2023-06-26T12:25:01;18.80;;;17.90;;
10315;SDS011;5203;48.976;8.306;2023-06-26T12:27:27;18.33;;;17.35;;
10315;SDS011;5203;48.976;8.306;2023-06-26T12:29:54;19.58;;;18.10;;
10315;SDS011;5203;48.976;8.306;2023-06-26T12:32:21;18.83;;;17.92;;
10315;SDS011;5203;48.976;8.306;2023-06-26T12:34:49;19.08;;;18.20;;
10315;SDS011;5203;48.976;8.306;2023-06-26T12:37:15;18.67;;;17.70;;
10315;SDS011;5203;48.976;8.306;2023-06-26T12:39:45;18.02;;;17.23;;
10315;SDS011;5203;48.976;8.306;2023-06-26T12:42:15;17.48;;;16.27;;
10315;SDS011;5203;48.976;8.306;2023-06-26T12:44:44;16.38;;;15.57;;
10315;SDS011;5203;48.976;8.306;2023-06-26T12:47:10;17.73;;;16.73;;
10315;SDS011;5203;48.976;8.306;2023-06-26T12:49:41;17.95;;;16.85;;
10315;SDS011;5203;48.976;8.306;2023-06-26T12:52:09;16.98;;;16.08;;
10315;SDS011;5203;48.976;8.306;2023-06-26T12:54:37;17.42;;;16.73;;
10315;SDS011;5203;48.976;8.306;2023-06-26T12:57:07;19.95;;;18.92;;
10315;SDS011;5203;48.976;8.306;2023-06-26T12:59:33;21.48;;;20.10;;
10315;SDS011;5203;48.976;8.306;2023-06-26T13:02:01;21.55;;;20.55;;
10315;SDS011;5203;48.976;8.306;2023-06-26T13:04:27;20.50;;;19.50;;
10315;SDS011;5203;48.976;8.306;2023-06-26T13:06:53;19.92;;;18.92;;
10315;SDS011;5203;48.976;8.306;2023-06-26T13:09:22;20.02;;;19.02;;
10315;SDS011;5203;48.976;8.306;2023-06-26T13:11:49;19.08;;;18.13;;
10315;SDS011;5203;48.976;8.306;2023-06-26T13:14:14;21.85;;;20.20;;
10315;SDS011;5203;48.976;8.306;2023-06-26T13:16:40;19.10;;;18.10;;
10315;SDS011;5203;48.976;8.306;2023-06-26T13:19:06;19.98;;;18.92;;
10315;SDS011;5203;48.976;8.306;2023-06-26T13:21:35;19.92;;;18.90;;
10315;SDS011;5203;48.976;8.306;2023-06-26T13:24:01;19.13;;;18.20;;
10315;SDS011;5203;48.976;8.306;2023-06-26T13:26:29;19.92;;;18.83;;
10315;SDS011;5203;48.976;8.306;2023-06-26T13:28:55;19.92;;;18.92;;
10315;SDS011;5203;48.976;8.306;2023-06-26T13:31:20;20.20;;;19.05;;
10315;SDS011;5203;48.976;8.306;2023-06-26T13:33:46;19.85;;;18.85;;
10315;SDS011;5203;48.976;8.306;2023-06-26T13:36:17;20.23;;;19.17;;
10315;SDS011;5203;48.976;8.306;2023-06-26T13:38:43;20.38;;;19.17;;
10315;SDS011;5203;48.976;8.306;2023-06-26T13:41:09;20.77;;;19.55;;
10315;SDS011;5203;48.976;8.306;2023-06-26T13:43:34;21.50;;;20.40;;
10315;SDS011;5203;48.976;8.306;2023-06-26T13:46:00;21.95;;;20.25;;
10315;SDS011;5203;48.976;8.306;2023-06-26T13:48:26;21.85;;;20.40;;
10315;SDS011;5203;48.976;8.306;2023-06-26T13:50:52;22.23;;;21.02;;
10315;SDS011;5203;48.976;8.306;2023-06-26T13:53:18;21.33;;;19.83;;
10315;SDS011;5203;48.976;8.306;2023-06-26T13:55:44;21.05;;;19.75;;
10315;SDS011;5203;48.976;8.306;2023-06-26T13:58:10;21.30;;;20.10;;
10315;SDS011;5203;48.976;8.306;2023-06-26T14:00:36;22.20;;;21.02;;
10315;SDS011;5203;48.976;8.306;2023-06-26T14:03:03;22.83;;;21.52;;
10315;SDS011;5203;48.976;8.306;2023-06-26T14:05:30;23.45;;;22.13;;
10315;SDS011;5203;48.976;8.306;2023-06-26T14:07:55;22.75;;;21.33;;
10315;SDS011;5203;48.976;8.306;2023-06-26T14:10:21;23.73;;;22.42;;
10315;SDS011;5203;48.976;8.306;2023-06-26T14:12:48;22.05;;;20.75;;
10315;SDS011;5203;48.976;8.306;2023-06-26T14:15:14;23.10;;;21.70;;
10315;SDS011;5203;48.976;8.306;2023-06-26T14:17:39;23.40;;;22.02;;
10315;SDS011;5203;48.976;8.306;2023-06-26T14:20:09;23.73;;;21.98;;
10315;SDS011;5203;48.976;8.306;2023-06-26T14:22:37;22.40;;;21.20;;
10315;SDS011;5203;48.976;8.306;2023-06-26T14:25:07;24.55;;;22.98;;
10315;SDS011;5203;48.976;8.306;2023-06-26T14:27:34;28.45;;;27.05;;
10315;SDS011;5203;48.976;8.306;2023-06-26T14:30:00;29.48;;;27.98;;
10315;SDS011;5203;48.976;8.306;2023-06-26T14:32:26;30.05;;;28.63;;
10315;SDS011;5203;48.976;8.306;2023-06-26T14:34:52;31.38;;;29.17;;
10315;SDS011;5203;48.976;8.306;2023-06-26T14:37:17;27.75;;;26.25;;
10315;SDS011;5203;48.976;8.306;2023-06-26T14:39:44;25.95;;;24.77;;
10315;SDS011;5203;48.976;8.306;2023-06-26T14:42:10;24.67;;;23.17;;
10315;SDS011;5203;48.976;8.306;2023-06-26T14:44:35;23.90;;;22.50;;
10315;SDS011;5203;48.976;8.306;2023-06-26T14:47:01;22.20;;;20.80;;
10315;SDS011;5203;48.976;8.306;2023-06-26T14:49:27;24.08;;;22.70;;
10315;SDS011;5203;48.976;8.306;2023-06-26T14:51:52;25.40;;;23.73;;
10315;SDS011;5203;48.976;8.306;2023-06-26T14:54:18;28.45;;;26.75;;
10315;SDS011;5203;48.976;8.306;2023-06-26T14:56:44;27.25;;;25.83;;